Terminal Aerodrome Forecast
Issued by NWS

Home | Current Version | Previous Version | Text Only | Print | Product List | Glossary On
Versions: 1 2 3 4 5 6 7 8 9 10 11 12 13 14 15 16 17
536
FTUS46 KSTO 231127
TAFRDD
TAF
KRDD 231127Z 2312/2412 00000KT 1 1/2SM BCFG BR VV002
      TEMPO 2312/2314 1/4SM FG VV001
     FM231600 18006KT P6SM SCT100 BKN200
     FM240300 17009KT P6SM -RA OVC050
     FM240900 18015KT P6SM -RA OVC025=

USA.gov is the U.S. government's official web portal to all federal, state and local government web resources and services.